»·PEaware :: N46AN KBFL-KCMA

N46AN :: KBFL-KCMA

FLIGHT INFORMATION

Flight Status: Arrived
Operator: Privately registered:
United States
More flights under this callsign
Pilot: Carson T. (20437)
Aircraft: CESSNA 172 SKYHAWK
(C172)
More flights by this aircraft type
Origin: KBFL Meadows
United States
Destination: KCMA Camarillo
United States
More flights between these airports :: More routes between these airports
Route: GMN
File this flight plan on PilotEdge
Remarks:
Altitude:
(Current/Filed)
7,500ft
Speed:
(Current/Filed)
120kts
Departed: 19-Sep-18 04:52 PM
Arrived: 19-Sep-18 05:46 PM
Distance/Time
Traveled:
73nm/0:54
Distance/Time
To Go:
Arrived

Flight Plot

Page will automatically refresh every two minutes.


Map Options




Map Legend


Flown Route
Filed Route
Departure Airport
Arrival Airport
Navaid (VOR, NDB)
Fix

Horizontal Profiles

Position Reports

Time Latitude Longitude Heading Altitude Ground
Speed
19-Sep-18 16:38 35.436382 -119.051290 34 510ft 0kts
19-Sep-18 16:39 35.436382 -119.051289 34 510ft 0kts
19-Sep-18 16:40 35.436382 -119.051289 34 510ft 0kts
19-Sep-18 16:41 35.436383 -119.051289 34 510ft 0kts
19-Sep-18 16:42 35.436383 -119.051288 34 510ft 0kts
19-Sep-18 16:43 35.436383 -119.051288 34 510ft 0kts
19-Sep-18 16:45 35.436384 -119.051287 34 510ft 0kts
19-Sep-18 16:46 35.436384 -119.051287 34 510ft 0kts
19-Sep-18 16:47 35.436385 -119.051287 34 510ft 0kts
19-Sep-18 16:48 35.436385 -119.051287 34 510ft 0kts
19-Sep-18 16:49 35.434812 -119.053839 218 510ft 10kts
19-Sep-18 16:50 35.432876 -119.052610 135 510ft 12kts
19-Sep-18 16:51 35.429485 -119.048548 135 510ft 19kts
19-Sep-18 16:52 35.426402 -119.045126 216 510ft 7kts
19-Sep-18 16:53 35.425994 -119.045702 230 510ft 0kts
19-Sep-18 16:54 35.427144 -119.048072 315 510ft 50kts
19-Sep-18 16:55 35.443874 -119.068154 316 1022ft 92kts
19-Sep-18 16:56 35.446658 -119.092994 207 1540ft 104kts
19-Sep-18 16:57 35.421935 -119.070223 145 1618ft 120kts
19-Sep-18 16:58 35.391446 -119.059457 164 2030ft 110kts
19-Sep-18 16:59 35.362509 -119.049013 162 2481ft 107kts
19-Sep-18 17:00 35.334272 -119.038699 163 2950ft 104kts
19-Sep-18 17:01 35.305998 -119.029178 164 3352ft 106kts
19-Sep-18 17:02 35.277704 -119.019745 165 3757ft 105kts
19-Sep-18 17:03 35.249937 -119.011168 166 4234ft 98kts
19-Sep-18 17:04 35.223031 -119.003983 169 4730ft 100kts
19-Sep-18 17:05 35.195510 -118.998716 177 5230ft 99kts
19-Sep-18 17:06 35.168891 -118.997689 185 5733ft 91kts
19-Sep-18 17:07 35.143402 -119.003508 202 6212ft 90kts
19-Sep-18 17:08 35.123430 -119.018566 231 6715ft 78kts
19-Sep-18 17:09 35.109602 -119.036433 185 7201ft 90kts
19-Sep-18 17:10 35.090856 -119.012528 112 7527ft 121kts
19-Sep-18 17:11 35.091772 -118.968247 67 7502ft 137kts
19-Sep-18 17:12 35.114309 -118.932727 25 7500ft 130kts
19-Sep-18 17:13 35.146872 -118.921915 345 7500ft 116kts
19-Sep-18 17:14 35.164325 -118.898129 121 7511ft 136kts
19-Sep-18 17:15 35.136530 -118.888120 209 7505ft 111kts
19-Sep-18 17:16 35.108098 -118.902780 211 7499ft 111kts
19-Sep-18 17:17 35.079194 -118.916504 209 7500ft 111kts
19-Sep-18 17:18 35.050227 -118.929968 212 7500ft 110kts
19-Sep-18 17:19 35.021356 -118.927985 151 7508ft 130kts
19-Sep-18 17:20 34.989139 -118.911873 180 7500ft 121kts
19-Sep-18 17:21 34.955838 -118.907697 181 7499ft 121kts
19-Sep-18 17:22 34.922412 -118.898063 172 7500ft 124kts
19-Sep-18 17:23 34.889643 -118.887207 175 7500ft 123kts
19-Sep-18 17:24 34.856219 -118.877289 175 7500ft 123kts
19-Sep-18 17:25 34.822877 -118.867379 175 7500ft 123kts
19-Sep-18 17:26 34.790469 -118.857826 171 7497ft 111kts
19-Sep-18 17:27 34.762667 -118.851430 203 7761ft 89kts
19-Sep-18 17:28 34.747169 -118.868216 242 8229ft 69kts
19-Sep-18 17:29 34.732152 -118.883701 215 8530ft 88kts
19-Sep-18 17:30 34.705804 -118.895829 206 8502ft 108kts
19-Sep-18 17:31 34.676392 -118.905887 205 8500ft 110kts
19-Sep-18 17:32 34.647045 -118.915993 206 8500ft 110kts
19-Sep-18 17:33 34.617409 -118.926314 205 8500ft 111kts
19-Sep-18 17:34 34.587674 -118.936533 205 8500ft 111kts
19-Sep-18 17:35 34.558014 -118.946802 205 8500ft 110kts
19-Sep-18 17:36 34.528729 -118.956966 205 8500ft 110kts
19-Sep-18 17:37 34.499034 -118.967251 205 8500ft 111kts
19-Sep-18 17:38 34.469404 -118.977491 205 8500ft 111kts
19-Sep-18 17:39 34.437586 -118.988872 205 8004ft 126kts
19-Sep-18 17:40 34.403630 -119.000732 204 7328ft 127kts
19-Sep-18 17:41 34.369393 -119.012218 203 6659ft 128kts
19-Sep-18 17:42 34.336865 -119.022952 204 6496ft 114kts
19-Sep-18 17:43 34.309438 -119.032299 204 5638ft 102kts
19-Sep-18 17:44 34.283005 -119.041943 193 4665ft 96kts
19-Sep-18 17:45 34.254508 -119.046851 188 3533ft 107kts
19-Sep-18 17:46 34.225914 -119.051229 187 2067ft 101kts
19-Sep-18 17:47 34.213490 -119.070554 271 681ft 74kts
19-Sep-18 17:48 34.213724 -119.090063 269 78ft 8kts
19-Sep-18 17:49 34.213130 -119.090624 182 78ft 0kts
19-Sep-18 17:50 34.211935 -119.089930 143 78ft 12kts
19-Sep-18 17:51 34.210645 -119.088807 181 78ft 0kts
19-Sep-18 17:52 34.210645 -119.088807 181 78ft 0kts
19-Sep-18 17:53 34.210644 -119.088807 181 78ft 0kts
19-Sep-18 17:54 34.210644 -119.088807 181 78ft 0kts
19-Sep-18 17:55 34.210644 -119.088807 181 78ft 0kts
19-Sep-18 17:56 34.210643 -119.088807 181 78ft 0kts
19-Sep-18 17:57 34.210643 -119.088807 181 78ft 0kts
19-Sep-18 17:58 34.210642 -119.088807 181 78ft 0kts
19-Sep-18 17:59 34.210642 -119.088807 181 78ft 0kts
19-Sep-18 18:00 34.210641 -119.088807 181 78ft 0kts
19-Sep-18 18:01 34.210641 -119.088807 181 78ft 0kts
19-Sep-18 18:02 34.210640 -119.088807 181 78ft 0kts

Navigation Log

Ident Type
1. KBFL Airport
2. GMN Navaid
3. KCMA Airport